createdAt,value
2022-07-31T00:02:06.867Z,99424.41
2022-07-31T00:04:53.191Z,99420.03
2022-07-31T00:07:39.452Z,99422.69
2022-07-31T00:10:26.018Z,99423.75
2022-07-31T00:13:12.392Z,99413.34
2022-07-31T00:15:58.678Z,99418.56
2022-07-31T00:18:44.945Z,99409.88
2022-07-31T00:21:31.150Z,99415.50
2022-07-31T00:24:17.474Z,99409.16
2022-07-31T00:27:04.908Z,99402.94
2022-07-31T00:29:51.592Z,99411.03
2022-07-31T00:32:38.121Z,99415.50
2022-07-31T00:35:24.646Z,99405.84
2022-07-31T00:38:27.458Z,99401.13
2022-07-31T00:41:13.731Z,99403.72
2022-07-31T00:44:00.122Z,99406.16
2022-07-31T00:46:47.012Z,99413.87
2022-07-31T00:49:37.711Z,99410.12
2022-07-31T00:52:24.139Z,99405.69
2022-07-31T00:55:10.579Z,99424.50
2022-07-31T00:57:56.919Z,99406.16
2022-07-31T01:00:43.230Z,99412.28
2022-07-31T01:03:29.644Z,99398.72
2022-07-31T01:06:16.121Z,99417.72
2022-07-31T01:09:02.456Z,99420.41
2022-07-31T01:12:01.961Z,99421.75
2022-07-31T01:14:50.653Z,99430.16
2022-07-31T01:17:38.854Z,99423.66
2022-07-31T01:20:25.691Z,99439.63
2022-07-31T01:23:21.267Z,99418.50
2022-07-31T01:26:21.341Z,99419.41
2022-07-31T01:29:27.587Z,99419.00
2022-07-31T01:32:17.694Z,99420.13
2022-07-31T01:35:27.800Z,99432.94
2022-07-31T01:38:26.786Z,99422.66
2022-07-31T01:41:14.813Z,99432.75
2022-07-31T01:44:01.333Z,99437.09
2022-07-31T01:46:48.844Z,99432.75
2022-07-31T01:49:35.638Z,99440.28
2022-07-31T01:52:25.506Z,99430.16
2022-07-31T01:55:12.925Z,99440.00
2022-07-31T01:58:00.929Z,99432.94
2022-07-31T02:00:48.564Z,99436.06
2022-07-31T02:03:43.712Z,99437.25
2022-07-31T02:06:32.011Z,99434.34
2022-07-31T02:09:20.209Z,99438.56
2022-07-31T02:12:09.327Z,99435.34
2022-07-31T02:14:56.599Z,99437.84
2022-07-31T02:17:44.620Z,99431.50
2022-07-31T02:20:40.495Z,99433.91
2022-07-31T02:23:28.684Z,99426.69
2022-07-31T02:26:15.767Z,99417.44
2022-07-31T02:29:03.012Z,99412.56
2022-07-31T02:32:02.777Z,99401.78
2022-07-31T02:34:50.276Z,99397.53
2022-07-31T02:37:38.141Z,99397.41
2022-07-31T02:40:25.470Z,99392.38
2022-07-31T02:43:13.146Z,99397.44
2022-07-31T02:45:59.271Z,99379.91
2022-07-31T02:48:46.093Z,99400.91
2022-07-31T02:51:41.059Z,99391.16
2022-07-31T02:54:29.505Z,99379.91
2022-07-31T02:57:15.856Z,99390.63
2022-07-31T03:00:02.469Z,99397.47
2022-07-31T03:02:52.936Z,99394.03
2022-07-31T03:05:39.840Z,99408.03
2022-07-31T03:08:27.242Z,99401.03
2022-07-31T03:11:14.823Z,99395.66
2022-07-31T03:14:01.992Z,99396.84
2022-07-31T03:16:49.536Z,99397.88
2022-07-31T03:19:35.565Z,99400.31
2022-07-31T03:22:21.855Z,99391.56
2022-07-31T03:25:08.825Z,99401.34
2022-07-31T03:27:56.118Z,99402.28
2022-07-31T03:30:42.949Z,99399.84
2022-07-31T03:33:30.066Z,99387.09
2022-07-31T03:36:16.443Z,99393.34
2022-07-31T03:39:02.978Z,99395.22
2022-07-31T03:41:50.015Z,99388.81
2022-07-31T03:44:38.004Z,99392.31
2022-07-31T03:47:24.211Z,99391.28
2022-07-31T03:50:11.356Z,99381.59
2022-07-31T03:52:58.332Z,99394.62
2022-07-31T03:55:44.924Z,99398.59
2022-07-31T03:58:31.233Z,99390.53
2022-07-31T04:01:20.685Z,99397.72
2022-07-31T04:04:07.962Z,99392.44
2022-07-31T04:06:54.245Z,99397.47
2022-07-31T04:09:40.984Z,99391.50
2022-07-31T04:12:27.356Z,99394.38
2022-07-31T04:15:14.162Z,99392.31
2022-07-31T04:18:00.580Z,99397.66
2022-07-31T04:20:47.916Z,99409.03
2022-07-31T04:23:34.240Z,99403.34
2022-07-31T04:26:26.087Z,99405.66
2022-07-31T04:29:13.448Z,99410.47
2022-07-31T04:31:59.600Z,99408.84
2022-07-31T04:34:47.119Z,99405.38
2022-07-31T04:37:33.809Z,99402.34
2022-07-31T04:40:20.015Z,99406.34
2022-07-31T04:43:06.362Z,99395.75
2022-07-31T04:45:52.931Z,99396.16
2022-07-31T04:48:39.374Z,99407.19
2022-07-31T04:51:27.627Z,99402.78
2022-07-31T04:54:14.989Z,99401.31
2022-07-31T04:57:01.226Z,99398.13
2022-07-31T04:59:58.548Z,99384.56
2022-07-31T05:02:47.684Z,99410.19
2022-07-31T05:05:33.893Z,99384.13
2022-07-31T05:08:20.415Z,99393.59
2022-07-31T05:11:22.489Z,99397.28
2022-07-31T05:14:11.168Z,99397.84
2022-07-31T05:16:57.824Z,99398.97
2022-07-31T05:19:45.374Z,99408.16
2022-07-31T05:22:34.894Z,99404.00
2022-07-31T05:25:21.606Z,99409.28
2022-07-31T05:28:09.684Z,99405.53
2022-07-31T05:30:55.853Z,99413.87
2022-07-31T05:33:42.635Z,99414.94
2022-07-31T05:36:29.021Z,99406.63
2022-07-31T05:39:17.616Z,99417.53
2022-07-31T05:42:05.806Z,99418.91
2022-07-31T05:44:52.709Z,99415.34
2022-07-31T05:47:40.498Z,99429.03
2022-07-31T05:50:27.289Z,99420.25
2022-07-31T05:53:16.999Z,99424.84
2022-07-31T05:56:05.709Z,99423.56
2022-07-31T05:58:52.056Z,99431.97
2022-07-31T06:01:38.523Z,99437.59
2022-07-31T06:04:25.192Z,99439.19
2022-07-31T06:07:11.625Z,99430.00
2022-07-31T06:09:58.422Z,99433.72
2022-07-31T06:12:44.705Z,99439.75
2022-07-31T06:15:35.782Z,99443.56
2022-07-31T06:18:23.000Z,99436.59
2022-07-31T06:23:56.487Z,99449.28
2022-07-31T06:26:43.517Z,99448.81
2022-07-31T06:29:41.639Z,99444.97
2022-07-31T06:32:28.622Z,99447.88
2022-07-31T06:35:14.921Z,99444.78
2022-07-31T06:38:03.090Z,99449.81
2022-07-31T06:40:51.573Z,99449.56
2022-07-31T06:43:39.547Z,99454.47
2022-07-31T06:46:30.042Z,99456.22
2022-07-31T06:49:18.569Z,99461.47
2022-07-31T06:52:05.064Z,99467.16
2022-07-31T06:54:52.481Z,99459.59
2022-07-31T06:57:38.818Z,99461.38
2022-07-31T07:00:25.114Z,99457.09
2022-07-31T07:03:13.422Z,99456.12
2022-07-31T07:06:00.009Z,99456.34
2022-07-31T07:08:46.615Z,99448.75
2022-07-31T07:11:34.302Z,99446.72
2022-07-31T07:14:20.634Z,99457.44
2022-07-31T07:17:06.829Z,99446.38
2022-07-31T07:19:54.776Z,99450.63
2022-07-31T07:22:42.116Z,99443.59
2022-07-31T07:25:29.486Z,99437.97
2022-07-31T07:28:30.115Z,99447.25
2022-07-31T07:31:17.197Z,99444.59
2022-07-31T07:34:06.215Z,99433.62
2022-07-31T07:36:52.592Z,99435.13
2022-07-31T07:39:39.950Z,99437.56
2022-07-31T07:42:26.461Z,99433.03
2022-07-31T07:45:13.843Z,99439.84
2022-07-31T07:48:06.561Z,99439.88
2022-07-31T07:50:55.610Z,99426.19
2022-07-31T07:53:42.046Z,99436.31
2022-07-31T07:56:30.925Z,99444.41
2022-07-31T07:59:17.646Z,99437.22
2022-07-31T08:02:06.280Z,99435.78
2022-07-31T08:04:52.822Z,99436.91
2022-07-31T08:07:41.879Z,99445.37
2022-07-31T08:10:29.119Z,99441.66
2022-07-31T08:13:15.459Z,99449.09
2022-07-31T08:16:05.393Z,99449.38
2022-07-31T08:18:52.999Z,99469.25
2022-07-31T08:21:39.661Z,99466.47
2022-07-31T08:24:25.957Z,99476.28
2022-07-31T08:27:24.342Z,99466.66
2022-07-31T08:30:29.182Z,99462.06
2022-07-31T08:33:18.473Z,99469.16
2022-07-31T08:36:09.170Z,99466.41
2022-07-31T08:38:55.773Z,99461.00
2022-07-31T08:41:43.593Z,99453.31
2022-07-31T08:44:39.355Z,99459.66
2022-07-31T08:47:27.166Z,99460.75
2022-07-31T08:50:15.589Z,99464.88
2022-07-31T08:53:02.747Z,99480.41
2022-07-31T08:55:57.006Z,99464.78
2022-07-31T08:58:44.768Z,99466.97
2022-07-31T09:01:33.798Z,99474.81
2022-07-31T09:04:19.683Z,99486.06
2022-07-31T09:07:10.586Z,99491.63
2022-07-31T09:09:57.193Z,99507.81
2022-07-31T09:12:44.441Z,99484.53
2022-07-31T09:15:31.985Z,99491.25
2022-07-31T09:18:21.282Z,99497.28
2022-07-31T09:21:07.732Z,99505.66
2022-07-31T09:23:54.794Z,99494.50
2022-07-31T09:26:41.069Z,99495.91
2022-07-31T09:29:41.399Z,99507.22
2022-07-31T09:32:28.765Z,99506.13
2022-07-31T09:35:15.833Z,99513.41
2022-07-31T09:38:04.343Z,99501.38
2022-07-31T09:40:57.195Z,99489.19
2022-07-31T09:43:54.790Z,99484.97
2022-07-31T09:46:45.929Z,99485.75
2022-07-31T09:49:33.444Z,99496.94
2022-07-31T09:52:20.746Z,99472.91
2022-07-31T09:55:16.294Z,99477.00
2022-07-31T09:58:03.383Z,99487.16
2022-07-31T10:00:52.846Z,99487.81
2022-07-31T10:03:40.401Z,99477.16
2022-07-31T10:06:27.834Z,99487.38
2022-07-31T10:09:15.528Z,99477.03
2022-07-31T10:12:02.444Z,99474.16
2022-07-31T10:14:51.158Z,99491.16
2022-07-31T10:17:39.861Z,99482.19
2022-07-31T10:20:26.941Z,99486.56
2022-07-31T10:23:22.208Z,99487.72
2022-07-31T10:26:08.920Z,99468.06
2022-07-31T10:28:55.889Z,99490.50
2022-07-31T10:31:42.361Z,99483.28
2022-07-31T10:34:28.797Z,99486.84
2022-07-31T10:37:24.862Z,99474.56
2022-07-31T10:40:20.985Z,99484.72
2022-07-31T10:43:10.093Z,99482.06
2022-07-31T10:45:56.797Z,99500.94
2022-07-31T10:48:52.863Z,99488.25
2022-07-31T10:51:51.750Z,99493.78
2022-07-31T10:54:40.452Z,99485.56
2022-07-31T10:57:34.698Z,99492.03
2022-07-31T11:00:41.886Z,99521.16
2022-07-31T11:03:41.798Z,99504.16
2022-07-31T11:06:42.020Z,99521.16
2022-07-31T11:09:29.199Z,99515.50
2022-07-31T11:12:19.793Z,99523.44
2022-07-31T11:15:21.373Z,99540.06
2022-07-31T11:18:20.960Z,99538.06
2022-07-31T11:21:37.169Z,99536.25
2022-07-31T11:24:28.992Z,99525.69
2022-07-31T11:27:15.267Z,99532.28
2022-07-31T11:30:12.981Z,99533.63
2022-07-31T11:32:59.431Z,99542.69
2022-07-31T11:35:45.888Z,99531.41
2022-07-31T11:38:32.160Z,99538.34
2022-07-31T11:41:22.239Z,99555.56
2022-07-31T11:44:09.241Z,99561.72
2022-07-31T11:46:55.667Z,99543.13
2022-07-31T11:49:48.554Z,99549.06
2022-07-31T11:52:37.566Z,99551.87
2022-07-31T11:55:24.102Z,99530.91
2022-07-31T11:58:13.509Z,99550.91
2022-07-31T12:01:01.548Z,99561.69
2022-07-31T12:03:49.984Z,99558.19
2022-07-31T12:06:37.295Z,99551.28
2022-07-31T12:10:00.395Z,99555.62
2022-07-31T12:12:31.065Z,99575.50
2022-07-31T12:15:19.809Z,99563.91
2022-07-31T12:18:06.108Z,99570.72
2022-07-31T12:21:04.539Z,99550.16
2022-07-31T12:23:52.313Z,99570.00
2022-07-31T12:26:39.009Z,99560.41
2022-07-31T12:29:36.799Z,99576.78
2022-07-31T12:32:27.787Z,99573.31
2022-07-31T12:35:14.025Z,99561.38
2022-07-31T12:38:07.270Z,99567.06
2022-07-31T12:41:07.888Z,99572.22
2022-07-31T12:43:56.269Z,99575.88
2022-07-31T12:46:42.610Z,99587.00
2022-07-31T12:49:29.089Z,99579.97
2022-07-31T12:52:15.455Z,99577.22
2022-07-31T12:55:05.104Z,99573.72
2022-07-31T12:57:52.243Z,99573.22
2022-07-31T13:00:40.236Z,99563.25
2022-07-31T13:03:45.473Z,99572.66
2022-07-31T13:06:34.337Z,99584.69
2022-07-31T13:09:20.802Z,99595.38
2022-07-31T13:12:07.956Z,99571.63
2022-07-31T13:14:54.250Z,99574.34
2022-07-31T13:17:43.834Z,99599.91
2022-07-31T13:20:34.333Z,99596.66
2022-07-31T13:23:21.521Z,99593.03
2022-07-31T13:26:07.591Z,99583.31
2022-07-31T13:28:53.882Z,99591.59
2022-07-31T13:31:40.597Z,99591.84
2022-07-31T13:34:26.822Z,99576.03
2022-07-31T13:37:13.037Z,99575.59
2022-07-31T13:39:59.433Z,99573.34
2022-07-31T13:42:45.833Z,99570.75
2022-07-31T13:45:32.533Z,99568.22
2022-07-31T13:48:18.963Z,99579.09
2022-07-31T13:51:05.151Z,99575.75
2022-07-31T13:53:51.569Z,99570.59
2022-07-31T13:56:43.499Z,99579.41
2022-07-31T13:59:29.953Z,99580.59
2022-07-31T14:02:16.551Z,99567.91
2022-07-31T14:05:04.929Z,99563.00
2022-07-31T14:07:54.866Z,99552.44
2022-07-31T14:10:41.740Z,99553.69
2022-07-31T14:13:29.018Z,99539.41
2022-07-31T14:16:15.423Z,99559.87
2022-07-31T14:19:01.531Z,99552.44
2022-07-31T14:21:55.922Z,99549.38
2022-07-31T14:24:50.713Z,99547.47
2022-07-31T14:27:38.705Z,99544.75
2022-07-31T14:30:24.947Z,99553.97
2022-07-31T14:33:13.401Z,99560.41
2022-07-31T14:35:59.338Z,99566.72
2022-07-31T14:38:45.596Z,99562.69
2022-07-31T14:41:31.881Z,99572.38
2022-07-31T14:44:21.403Z,99567.41
2022-07-31T14:47:14.702Z,99572.03
2022-07-31T14:50:07.017Z,99565.53
2022-07-31T14:52:56.734Z,99568.34
2022-07-31T14:55:43.129Z,99572.81
2022-07-31T14:58:29.462Z,99562.88
2022-07-31T15:01:16.307Z,99553.28
2022-07-31T15:04:02.921Z,99546.31
2022-07-31T15:06:55.818Z,99549.59
2022-07-31T15:09:45.069Z,99551.72
2022-07-31T15:12:31.970Z,99541.91
2022-07-31T15:15:18.301Z,99542.19
2022-07-31T15:18:04.770Z,99535.16
2022-07-31T15:20:51.075Z,99531.28
2022-07-31T15:23:37.751Z,99520.56
2022-07-31T15:26:24.012Z,99520.56
2022-07-31T15:29:10.233Z,99533.56
2022-07-31T15:31:56.630Z,99513.94
2022-07-31T15:34:42.976Z,99519.56
2022-07-31T15:37:30.253Z,99522.00
2022-07-31T15:40:17.222Z,99528.66
2022-07-31T15:43:03.052Z,99529.13
2022-07-31T15:45:49.866Z,99512.44
2022-07-31T15:48:37.366Z,99513.69
2022-07-31T15:51:23.921Z,99511.22
2022-07-31T15:54:11.130Z,99513.34
2022-07-31T15:56:57.525Z,99515.50
2022-07-31T15:59:43.942Z,99520.50
2022-07-31T16:02:30.185Z,99519.34
2022-07-31T16:05:32.970Z,99525.25
2022-07-31T16:08:31.104Z,99520.69
2022-07-31T16:11:20.881Z,99525.75
2022-07-31T16:14:10.615Z,99527.09
2022-07-31T16:16:58.342Z,99533.88
2022-07-31T16:19:44.843Z,99529.53
2022-07-31T16:22:31.237Z,99523.09
2022-07-31T16:25:18.872Z,99527.91
2022-07-31T16:28:05.505Z,99527.50
2022-07-31T16:30:51.603Z,99527.13
2022-07-31T16:33:37.957Z,99507.03
2022-07-31T16:36:24.868Z,99518.88
2022-07-31T16:39:20.244Z,99529.16
2022-07-31T16:42:07.305Z,99524.97
2022-07-31T16:44:56.556Z,99526.25
2022-07-31T16:47:45.719Z,99534.63
2022-07-31T16:50:38.129Z,99525.97
2022-07-31T16:54:11.170Z,99543.81
2022-07-31T16:56:33.889Z,99540.41
2022-07-31T16:59:21.207Z,99539.88
2022-07-31T17:02:07.582Z,99535.00
2022-07-31T17:04:54.263Z,99536.41
2022-07-31T17:07:40.897Z,99542.34
2022-07-31T17:10:27.408Z,99543.19
2022-07-31T17:13:15.609Z,99525.16
2022-07-31T17:16:03.317Z,99531.66
2022-07-31T17:18:54.373Z,99527.00
2022-07-31T17:21:41.899Z,99514.66
2022-07-31T17:24:32.615Z,99520.78
2022-07-31T17:27:21.303Z,99513.03
2022-07-31T17:30:08.316Z,99515.19
2022-07-31T17:32:54.415Z,99524.81
2022-07-31T17:35:41.627Z,99521.37
2022-07-31T17:38:27.750Z,99518.78
2022-07-31T17:41:24.681Z,99528.84
2022-07-31T17:44:11.878Z,99530.19
2022-07-31T17:46:59.200Z,99523.22
2022-07-31T17:49:46.229Z,99536.37
2022-07-31T17:52:32.933Z,99547.72
2022-07-31T17:55:19.046Z,99537.00
2022-07-31T17:58:05.807Z,99542.88
2022-07-31T18:00:53.081Z,99545.34
2022-07-31T18:03:39.191Z,99541.84
2022-07-31T18:06:25.618Z,99549.38
2022-07-31T18:09:14.773Z,99546.06
2022-07-31T18:12:02.590Z,99551.50
2022-07-31T18:14:49.687Z,99555.44
2022-07-31T18:17:40.239Z,99567.75
2022-07-31T18:20:26.828Z,99559.72
2022-07-31T18:23:14.436Z,99558.28
2022-07-31T18:26:02.716Z,99559.22
2022-07-31T18:28:49.371Z,99553.97
2022-07-31T18:31:36.350Z,99554.13
2022-07-31T18:34:23.457Z,99555.94
2022-07-31T18:37:13.479Z,99559.75
2022-07-31T18:40:00.752Z,99560.25
2022-07-31T18:42:47.148Z,99566.53
2022-07-31T18:45:33.722Z,99567.28
2022-07-31T18:48:20.536Z,99570.47
2022-07-31T18:51:07.105Z,99573.59
2022-07-31T18:53:54.429Z,99571.78
2022-07-31T18:56:40.744Z,99576.03
2022-07-31T18:59:27.314Z,99577.31
2022-07-31T19:02:14.681Z,99583.16
2022-07-31T19:05:04.017Z,99590.72
2022-07-31T19:07:50.468Z,99587.66
2022-07-31T19:10:37.065Z,99598.94
2022-07-31T19:13:23.861Z,99604.19
2022-07-31T19:16:10.303Z,99595.75
2022-07-31T19:18:57.855Z,99610.75
2022-07-31T19:21:44.681Z,99607.41
2022-07-31T19:24:31.235Z,99616.19
2022-07-31T19:27:18.382Z,99617.78
2022-07-31T19:30:05.806Z,99612.75
2022-07-31T19:32:52.460Z,99619.94
2022-07-31T19:35:55.400Z,99613.81
2022-07-31T19:38:45.446Z,99625.41
2022-07-31T19:41:34.513Z,99615.72
2022-07-31T19:44:21.846Z,99620.84
2022-07-31T19:47:10.778Z,99615.81
2022-07-31T19:49:57.011Z,99622.53
2022-07-31T19:52:43.301Z,99623.69
2022-07-31T19:55:29.716Z,99620.13
2022-07-31T19:58:23.667Z,99620.53
2022-07-31T20:01:11.574Z,99621.47
2022-07-31T20:03:58.105Z,99604.59
2022-07-31T20:06:44.398Z,99612.59
2022-07-31T20:09:31.249Z,99605.47
2022-07-31T20:12:18.083Z,99607.44
2022-07-31T20:15:05.301Z,99610.72
2022-07-31T20:17:52.465Z,99604.81
2022-07-31T20:20:39.310Z,99599.38
2022-07-31T20:23:26.269Z,99604.03
2022-07-31T20:26:17.829Z,99606.34
2022-07-31T20:29:04.632Z,99603.00
2022-07-31T20:31:51.024Z,99594.75
2022-07-31T20:34:37.398Z,99599.69
2022-07-31T20:37:23.858Z,99600.44
2022-07-31T20:40:10.572Z,99598.56
2022-07-31T20:42:56.921Z,99596.50
2022-07-31T20:45:47.713Z,99596.44
2022-07-31T20:48:34.932Z,99595.84
2022-07-31T20:51:28.731Z,99600.75
2022-07-31T20:54:15.206Z,99600.38
2022-07-31T20:57:01.553Z,99606.00
2022-07-31T20:59:48.024Z,99607.06
2022-07-31T21:02:34.640Z,99601.91
2022-07-31T21:05:26.746Z,99601.41
2022-07-31T21:08:13.185Z,99607.78
2022-07-31T21:11:01.176Z,99608.16
2022-07-31T21:13:47.647Z,99600.41
2022-07-31T21:16:35.042Z,99600.19
2022-07-31T21:19:21.254Z,99600.13
2022-07-31T21:22:07.781Z,99598.75
2022-07-31T21:24:54.204Z,99605.28
2022-07-31T21:27:40.986Z,99606.09
2022-07-31T21:30:28.112Z,99608.03
2022-07-31T21:33:15.073Z,99613.88
2022-07-31T21:36:01.163Z,99607.66
2022-07-31T21:38:47.790Z,99608.12
2022-07-31T21:41:34.023Z,99608.03
2022-07-31T21:44:20.859Z,99613.84
2022-07-31T21:47:09.695Z,99612.44
2022-07-31T21:49:58.520Z,99620.66
2022-07-31T21:52:44.427Z,99629.41
2022-07-31T21:55:30.918Z,99622.81
2022-07-31T21:58:17.635Z,99620.22
2022-07-31T22:01:04.555Z,99635.84
2022-07-31T22:03:50.992Z,99631.62
2022-07-31T22:06:55.918Z,99635.59
2022-07-31T22:09:42.270Z,99635.78
2022-07-31T22:12:28.592Z,99641.13
2022-07-31T22:15:15.905Z,99637.84
2022-07-31T22:18:02.837Z,99646.56
2022-07-31T22:20:49.574Z,99648.00
2022-07-31T22:23:36.200Z,99641.22
2022-07-31T22:26:22.806Z,99633.72
2022-07-31T22:29:08.953Z,99628.69
2022-07-31T22:31:55.997Z,99627.16
2022-07-31T22:34:42.455Z,99624.69
2022-07-31T22:37:29.025Z,99622.06
2022-07-31T22:40:16.981Z,99623.44
2022-07-31T22:43:04.086Z,99629.88
2022-07-31T22:46:12.349Z,99626.28
2022-07-31T22:48:58.949Z,99631.78
2022-07-31T22:51:46.720Z,99639.00
2022-07-31T22:54:33.790Z,99631.47
2022-07-31T22:57:19.804Z,99634.25
2022-07-31T23:00:07.807Z,99635.78
2022-07-31T23:02:54.011Z,99638.41
2022-07-31T23:06:03.558Z,99628.00
2022-07-31T23:08:46.185Z,99634.34
2022-07-31T23:11:37.563Z,99629.38
2022-07-31T23:14:23.981Z,99628.16
2022-07-31T23:17:10.163Z,99622.81
2022-07-31T23:20:09.531Z,99628.59
2022-07-31T23:22:56.159Z,99633.00
2022-07-31T23:25:42.491Z,99631.41
2022-07-31T23:28:28.882Z,99614.75
2022-07-31T23:31:15.263Z,99622.13
2022-07-31T23:34:01.731Z,99618.06
2022-07-31T23:36:47.872Z,99613.09
2022-07-31T23:39:33.989Z,99625.97
2022-07-31T23:42:38.525Z,99617.63
2022-07-31T23:45:25.313Z,99608.66
2022-07-31T23:48:14.966Z,99613.22
2022-07-31T23:51:01.502Z,99621.38
2022-07-31T23:53:47.620Z,99611.16
2022-07-31T23:56:34.177Z,99619.69
2022-07-31T23:59:20.371Z,99616.22
